createdAt,value
2023-01-24T00:01:27.082Z,0.35
2023-01-24T00:06:47.751Z,0.43
2023-01-24T00:12:08.316Z,0.49
2023-01-24T00:17:28.990Z,0.54
2023-01-24T00:22:49.739Z,0.62
2023-01-24T00:28:10.437Z,0.68
2023-01-24T00:33:31.412Z,0.66
2023-01-24T00:38:53.759Z,0.70
2023-01-24T00:44:14.740Z,0.69
2023-01-24T00:49:35.619Z,0.73
2023-01-24T00:54:56.870Z,0.86
2023-01-24T01:00:17.942Z,0.79
2023-01-24T01:05:38.896Z,0.79
2023-01-24T01:11:00.528Z,0.75
2023-01-24T01:16:21.639Z,0.73
2023-01-24T01:21:45.467Z,0.73
2023-01-24T01:27:06.410Z,0.70
2023-01-24T01:32:27.161Z,0.63
2023-01-24T01:37:47.909Z,0.67
2023-01-24T01:43:15.605Z,0.66
2023-01-24T01:48:40.542Z,0.70
2023-01-24T01:54:06.873Z,0.70
2023-01-24T01:59:31.580Z,0.73
2023-01-24T02:05:06.061Z,0.67
2023-01-24T02:10:48.955Z,0.63
2023-01-24T02:16:11.816Z,0.56
2023-01-24T02:21:33.739Z,0.54
2023-01-24T02:26:54.911Z,0.47
2023-01-24T02:32:17.499Z,0.45
2023-01-24T02:37:38.620Z,0.46
2023-01-24T02:43:02.231Z,0.42
2023-01-24T02:48:22.884Z,0.43
2023-01-24T02:53:43.668Z,0.44
2023-01-24T02:59:04.319Z,0.48
2023-01-24T03:04:27.210Z,0.44
2023-01-24T03:09:47.915Z,0.46
2023-01-24T03:15:32.867Z,0.50
2023-01-24T03:21:12.111Z,0.50
2023-01-24T03:26:51.621Z,0.41
2023-01-24T03:32:33.383Z,0.50
2023-01-24T03:38:13.383Z,0.53
2023-01-24T03:43:34.750Z,0.56
2023-01-24T03:48:55.852Z,0.56
2023-01-24T03:54:25.303Z,0.52
2023-01-24T03:59:52.157Z,0.56
2023-01-24T04:05:14.398Z,0.59
2023-01-24T04:10:37.435Z,0.55
2023-01-24T04:15:58.169Z,0.50
2023-01-24T04:21:39.011Z,0.50
2023-01-24T04:26:59.731Z,0.55
2023-01-24T04:32:26.509Z,0.51
2023-01-24T04:37:53.373Z,0.49
2023-01-24T04:43:29.260Z,0.41
2023-01-24T04:48:51.518Z,0.39
2023-01-24T04:54:12.866Z,0.40
2023-01-24T04:59:34.310Z,0.36
2023-01-24T05:04:55.157Z,0.39
2023-01-24T05:10:16.593Z,0.41
2023-01-24T05:15:50.548Z,0.44
2023-01-24T05:21:14.980Z,0.40
2023-01-24T05:26:37.313Z,0.50
2023-01-24T05:31:58.406Z,0.47
2023-01-24T05:37:19.039Z,0.41
2023-01-24T05:42:44.114Z,0.26
2023-01-24T05:48:06.202Z,0.26
2023-01-24T05:53:29.337Z,0.28
2023-01-24T05:58:50.452Z,0.32
2023-01-24T06:04:13.169Z,0.27
2023-01-24T06:09:34.425Z,0.34
2023-01-24T06:14:56.106Z,0.41
2023-01-24T06:20:17.343Z,0.36
2023-01-24T06:25:38.537Z,0.39
2023-01-24T06:31:06.057Z,0.54
2023-01-24T06:36:41.983Z,0.51
2023-01-24T06:42:03.110Z,0.48
2023-01-24T06:47:26.220Z,0.40
2023-01-24T06:52:49.010Z,0.36
2023-01-24T06:58:09.898Z,0.34
2023-01-24T07:03:30.555Z,0.28
2023-01-24T07:08:51.261Z,0.28
2023-01-24T07:14:11.886Z,0.29
2023-01-24T07:19:32.998Z,0.26
2023-01-24T07:24:54.503Z,0.30
2023-01-24T07:30:15.358Z,0.34
2023-01-24T07:35:36.032Z,0.43
2023-01-24T07:40:56.741Z,0.48
2023-01-24T07:46:17.509Z,0.47
2023-01-24T07:51:38.414Z,0.50
2023-01-24T07:56:59.032Z,0.51
2023-01-24T08:02:19.797Z,0.54
2023-01-24T08:07:40.543Z,0.64
2023-01-24T08:13:01.312Z,0.80
2023-01-24T08:18:21.926Z,0.82
2023-01-24T08:23:42.719Z,0.78
2023-01-24T08:29:03.908Z,0.77
2023-01-24T08:34:24.544Z,0.73
2023-01-24T08:39:45.261Z,0.76
2023-01-24T08:45:06.343Z,0.83
2023-01-24T08:50:28.187Z,0.99
2023-01-24T08:55:50.548Z,1.01
2023-01-24T09:01:12.065Z,1.02
2023-01-24T09:06:33.627Z,1.03
2023-01-24T09:11:54.403Z,0.92
2023-01-24T09:17:15.062Z,0.95
2023-01-24T09:22:36.219Z,0.90
2023-01-24T09:27:57.237Z,0.95
2023-01-24T09:33:19.180Z,0.91
2023-01-24T09:38:40.068Z,0.94
2023-01-24T09:44:04.145Z,1.08
2023-01-24T09:49:51.802Z,1.10
2023-01-24T09:55:38.319Z,1.10
2023-01-24T10:01:06.408Z,1.09
2023-01-24T10:06:30.434Z,1.11
2023-01-24T10:12:17.231Z,1.27
2023-01-24T10:17:53.147Z,1.36
2023-01-24T10:23:22.264Z,1.41
2023-01-24T10:28:52.734Z,1.55
2023-01-24T10:34:25.737Z,1.45
2023-01-24T10:39:46.725Z,1.47
2023-01-24T10:45:35.494Z,1.39
2023-01-24T10:51:17.441Z,1.26
2023-01-24T10:56:42.075Z,1.24
2023-01-24T11:02:03.288Z,1.28
2023-01-24T11:07:39.781Z,1.49
2023-01-24T11:13:02.661Z,1.67
2023-01-24T11:18:28.729Z,1.65
2023-01-24T11:24:08.228Z,1.80
2023-01-24T11:29:29.477Z,1.80
2023-01-24T11:34:50.470Z,1.81
2023-01-24T11:40:29.430Z,2.56
2023-01-24T11:46:12.147Z,2.13
2023-01-24T11:51:51.279Z,1.98
2023-01-24T11:57:24.532Z,1.95
2023-01-24T12:02:54.587Z,1.96
2023-01-24T12:08:34.129Z,1.81
2023-01-24T12:14:16.393Z,1.72
2023-01-24T12:19:46.176Z,1.73
2023-01-24T12:25:26.837Z,1.77
2023-01-24T12:30:54.928Z,1.76
2023-01-24T12:36:42.260Z,1.81
2023-01-24T12:42:22.922Z,1.89
2023-01-24T12:47:52.920Z,1.90
2023-01-24T12:53:27.660Z,1.83
2023-01-24T12:58:52.760Z,1.80
2023-01-24T13:04:24.588Z,1.88
2023-01-24T13:10:36.148Z,1.66
2023-01-24T13:16:14.910Z,1.53
2023-01-24T13:21:51.335Z,1.70
2023-01-24T13:27:16.917Z,1.75
2023-01-24T13:32:39.836Z,1.75
2023-01-24T13:38:16.733Z,1.78
2023-01-24T13:43:37.334Z,1.74
2023-01-24T13:48:58.675Z,1.83
2023-01-24T13:54:35.509Z,1.66
2023-01-24T14:00:15.667Z,1.71
2023-01-24T14:06:04.683Z,1.74
2023-01-24T14:11:36.589Z,1.68
2023-01-24T14:17:00.305Z,1.73
2023-01-24T14:22:28.354Z,1.76
2023-01-24T14:27:56.372Z,1.87
2023-01-24T14:33:28.037Z,1.81
2023-01-24T14:38:48.884Z,2.23
2023-01-24T14:44:23.163Z,2.59
2023-01-24T14:49:47.119Z,2.35
2023-01-24T14:55:43.402Z,2.22
2023-01-24T15:01:04.482Z,2.12
2023-01-24T15:06:28.159Z,2.05
2023-01-24T15:11:49.043Z,1.91
2023-01-24T15:17:25.582Z,1.90
2023-01-24T15:22:53.922Z,1.85
2023-01-24T15:28:30.253Z,1.80
2023-01-24T15:33:59.854Z,1.87
2023-01-24T15:39:20.982Z,1.92
2023-01-24T15:44:51.109Z,1.86
2023-01-24T15:50:59.305Z,1.94
2023-01-24T15:56:23.077Z,2.03
2023-01-24T16:01:44.331Z,2.09
2023-01-24T16:07:05.059Z,2.08
2023-01-24T16:12:35.502Z,1.94
2023-01-24T16:17:56.461Z,2.11
2023-01-24T16:23:17.235Z,2.25
2023-01-24T16:28:38.459Z,2.32
2023-01-24T16:33:59.334Z,2.34
2023-01-24T16:39:22.535Z,2.32
2023-01-24T16:44:43.987Z,2.17
2023-01-24T16:50:05.788Z,2.28
2023-01-24T16:55:26.791Z,2.30
2023-01-24T17:00:47.736Z,2.56
2023-01-24T17:06:09.755Z,2.55
2023-01-24T17:11:31.473Z,2.63
2023-01-24T17:16:52.313Z,2.70
2023-01-24T17:22:13.387Z,2.54
2023-01-24T17:27:34.380Z,2.40
2023-01-24T17:32:55.386Z,2.38
2023-01-24T17:38:17.348Z,2.39
2023-01-24T17:43:51.611Z,2.37
2023-01-24T17:49:13.448Z,2.34
2023-01-24T17:54:34.503Z,2.35
2023-01-24T17:59:55.287Z,2.33
2023-01-24T18:05:16.133Z,2.27
2023-01-24T18:10:38.206Z,2.21
2023-01-24T18:16:06.582Z,2.10
2023-01-24T18:21:27.670Z,2.09
2023-01-24T18:26:48.304Z,2.13
2023-01-24T18:32:09.063Z,2.11
2023-01-24T18:37:29.986Z,2.15
2023-01-24T18:42:50.798Z,2.03
2023-01-24T18:48:11.426Z,1.96
2023-01-24T18:53:32.359Z,2.02
2023-01-24T18:58:53.060Z,2.69
2023-01-24T19:04:13.852Z,2.49
2023-01-24T19:09:34.797Z,2.35
2023-01-24T19:14:55.668Z,2.33
2023-01-24T19:27:13.310Z,1.98
2023-01-24T19:32:37.246Z,1.81
2023-01-24T19:37:57.923Z,1.80
2023-01-24T19:43:18.902Z,1.94
2023-01-24T19:48:40.335Z,1.84
2023-01-24T19:54:01.037Z,1.66
2023-01-24T19:59:22.659Z,1.70
2023-01-24T20:04:52.018Z,1.73
2023-01-24T20:10:14.217Z,1.63
2023-01-24T20:15:34.933Z,1.68
2023-01-24T20:20:55.722Z,1.64
2023-01-24T20:26:16.719Z,1.48
2023-01-24T20:31:37.639Z,1.37
2023-01-24T20:36:58.537Z,1.35
2023-01-24T20:42:19.376Z,1.32
2023-01-24T20:47:40.543Z,1.21
2023-01-24T20:53:01.152Z,1.28
2023-01-24T20:58:22.648Z,1.40
2023-01-24T21:03:43.936Z,1.41
2023-01-24T21:09:05.483Z,1.26
2023-01-24T21:14:27.215Z,1.27
2023-01-24T21:19:48.457Z,1.19
2023-01-24T21:25:10.355Z,1.12
2023-01-24T21:30:32.062Z,1.19
2023-01-24T21:36:03.724Z,1.27
2023-01-24T21:41:42.930Z,1.28
2023-01-24T21:47:05.252Z,1.32
2023-01-24T21:52:25.838Z,1.41
2023-01-24T21:58:15.784Z,1.43
2023-01-24T22:03:36.712Z,1.37
2023-01-24T22:08:57.495Z,1.24
2023-01-24T22:14:24.328Z,1.27
2023-01-24T22:19:56.494Z,1.19
2023-01-24T22:25:44.185Z,1.34
2023-01-24T22:31:05.376Z,1.52
2023-01-24T22:36:26.386Z,1.57
2023-01-24T22:41:47.013Z,1.52
2023-01-24T22:47:07.696Z,1.55
2023-01-24T22:52:28.410Z,1.58
2023-01-24T22:57:49.202Z,1.66
2023-01-24T23:03:09.687Z,1.55
2023-01-24T23:08:30.322Z,1.43
2023-01-24T23:14:10.067Z,1.44
2023-01-24T23:19:52.505Z,1.50
2023-01-24T23:25:13.418Z,1.50
2023-01-24T23:30:54.296Z,1.46
2023-01-24T23:36:15.035Z,1.48
2023-01-24T23:41:35.682Z,1.47
2023-01-24T23:46:56.380Z,1.41
2023-01-24T23:52:18.101Z,1.38
2023-01-24T23:57:38.752Z,1.37
